createdAt,value
2018-07-04T00:00:04.754Z,4.37
2018-07-04T00:02:39.000Z,2.50
2018-07-04T00:05:13.158Z,6.80
2018-07-04T00:07:47.362Z,3.10
2018-07-04T00:10:21.521Z,3.90
2018-07-04T00:12:55.755Z,4.47
2018-07-04T00:15:29.995Z,4.13
2018-07-04T00:18:04.332Z,2.63
2018-07-04T00:20:39.495Z,9.33
2018-07-04T00:23:13.784Z,6.80
2018-07-04T00:25:47.963Z,6.43
2018-07-04T00:28:22.107Z,6.60
2018-07-04T00:30:56.128Z,2.50
2018-07-04T00:33:30.301Z,6.77
2018-07-04T00:36:04.377Z,2.97
2018-07-04T00:38:38.619Z,2.47
2018-07-04T00:41:12.869Z,4.00
2018-07-04T00:43:46.943Z,11.83
2018-07-04T00:46:21.061Z,5.17
2018-07-04T00:48:55.111Z,2.63
2018-07-04T00:51:29.152Z,7.80
2018-07-04T00:54:03.268Z,5.50
2018-07-04T00:56:37.549Z,6.80
2018-07-04T00:59:11.758Z,4.87
2018-07-04T01:01:45.922Z,6.53
2018-07-04T01:04:20.016Z,3.60
2018-07-04T01:06:54.462Z,4.03
2018-07-04T01:09:28.575Z,2.97
2018-07-04T01:12:03.043Z,4.37
2018-07-04T01:14:36.981Z,3.53
2018-07-04T01:17:11.272Z,3.90
2018-07-04T01:19:45.566Z,3.30
2018-07-04T01:22:19.688Z,3.23
2018-07-04T01:24:53.790Z,6.07
2018-07-04T01:27:28.119Z,5.60
2018-07-04T01:30:02.344Z,3.83
2018-07-04T01:32:36.409Z,2.67
2018-07-04T01:35:10.412Z,4.40
2018-07-04T01:37:44.586Z,6.93
2018-07-04T01:40:18.828Z,5.20
2018-07-04T01:42:53.021Z,2.03
2018-07-04T01:45:27.140Z,5.60
2018-07-04T01:48:01.117Z,4.77
2018-07-04T01:50:35.079Z,6.40
2018-07-04T01:53:09.780Z,6.37
2018-07-04T01:55:43.846Z,5.87
2018-07-04T01:58:17.944Z,4.50
2018-07-04T02:00:52.155Z,5.57
2018-07-04T02:03:26.425Z,4.20
2018-07-04T02:06:00.490Z,3.07
2018-07-04T02:08:34.652Z,1.53
2018-07-04T02:11:09.540Z,9.80
2018-07-04T02:13:43.822Z,5.20
2018-07-04T02:16:17.845Z,1.63
2018-07-04T02:18:51.940Z,3.87
2018-07-04T02:21:26.066Z,5.03
2018-07-04T02:24:00.375Z,4.37
2018-07-04T02:26:34.631Z,5.27
2018-07-04T02:29:09.639Z,6.33
2018-07-04T02:31:43.843Z,2.07
2018-07-04T02:34:22.217Z,2.83
2018-07-04T02:36:56.686Z,2.30
2018-07-04T02:39:30.937Z,3.33
2018-07-04T02:42:05.012Z,5.37
2018-07-04T02:44:39.109Z,4.63
2018-07-04T02:47:18.835Z,4.97
2018-07-04T02:49:52.920Z,3.90
2018-07-04T02:52:27.012Z,3.57
2018-07-04T02:55:01.308Z,3.90
2018-07-04T02:57:35.460Z,2.00
2018-07-04T03:00:10.081Z,3.75
2018-07-04T03:02:44.049Z,4.43
2018-07-04T03:05:18.276Z,3.63
2018-07-04T03:07:52.706Z,4.90
2018-07-04T03:10:26.783Z,6.57
2018-07-04T03:13:00.854Z,5.10
2018-07-04T03:15:35.077Z,5.80
2018-07-04T03:18:09.699Z,6.45
2018-07-04T03:20:43.724Z,2.93
2018-07-04T03:23:17.976Z,4.00
2018-07-04T03:25:52.031Z,3.67
2018-07-04T03:28:26.079Z,3.03
2018-07-04T03:31:00.232Z,5.63
2018-07-04T03:33:34.409Z,4.07
2018-07-04T03:36:09.398Z,5.50
2018-07-04T03:38:43.638Z,3.03
2018-07-04T03:41:17.854Z,3.53
2018-07-04T03:43:52.329Z,5.73
2018-07-04T03:46:26.374Z,3.33
2018-07-04T03:49:00.607Z,6.20
2018-07-04T03:51:34.908Z,4.60
2018-07-04T03:54:09.750Z,3.87
2018-07-04T03:56:43.903Z,2.27
2018-07-04T03:59:18.041Z,2.80
2018-07-04T04:01:52.352Z,4.57
2018-07-04T04:04:26.515Z,3.90
2018-07-04T04:07:00.785Z,7.03
2018-07-04T04:09:34.898Z,2.43
2018-07-04T04:12:09.818Z,6.60
2018-07-04T04:14:43.791Z,4.40
2018-07-04T04:17:18.375Z,4.23
2018-07-04T04:19:52.574Z,7.57
2018-07-04T04:22:26.812Z,8.30
2018-07-04T04:25:00.919Z,4.73
2018-07-04T04:27:35.155Z,3.90
2018-07-04T04:30:09.834Z,7.03
2018-07-04T04:32:44.017Z,5.87
2018-07-04T04:35:17.985Z,3.60
2018-07-04T04:37:53.007Z,3.43
2018-07-04T04:40:27.487Z,9.10
2018-07-04T04:43:02.161Z,8.43
2018-07-04T04:45:36.242Z,6.70
2018-07-04T04:48:10.266Z,5.20
2018-07-04T04:50:44.529Z,9.07
2018-07-04T04:53:18.623Z,7.80
2018-07-04T04:55:52.850Z,4.67
2018-07-04T04:58:26.954Z,5.43
2018-07-04T05:01:01.058Z,7.60
2018-07-04T05:03:35.340Z,4.70
2018-07-04T05:06:09.819Z,3.60
2018-07-04T05:08:44.617Z,6.50
2018-07-04T05:11:18.789Z,5.57
2018-07-04T05:13:53.031Z,7.67
2018-07-04T05:16:27.074Z,4.83
2018-07-04T05:19:01.138Z,8.67
2018-07-04T05:21:35.334Z,6.03
2018-07-04T05:24:09.823Z,5.93
2018-07-04T05:26:43.990Z,4.97
2018-07-04T05:29:18.235Z,6.80
2018-07-04T05:31:52.311Z,8.43
2018-07-04T05:34:26.543Z,8.90
2018-07-04T05:37:00.647Z,10.53
2018-07-04T05:39:34.720Z,8.73
2018-07-04T05:42:10.097Z,8.53
2018-07-04T05:44:44.597Z,9.00
2018-07-04T05:47:18.790Z,5.53
2018-07-04T05:49:52.869Z,5.57
2018-07-04T05:52:26.947Z,7.37
2018-07-04T05:55:01.394Z,7.27
2018-07-04T05:57:35.650Z,9.27
2018-07-04T06:00:10.485Z,9.20
2018-07-04T06:02:44.578Z,9.00
2018-07-04T06:05:18.736Z,11.90
2018-07-04T06:07:52.744Z,23.13
2018-07-04T06:10:27.050Z,27.57
2018-07-04T06:13:01.011Z,8.57
2018-07-04T06:15:35.135Z,14.60
2018-07-04T06:18:10.025Z,13.97
2018-07-04T06:20:44.265Z,18.70
2018-07-04T06:23:18.499Z,21.50
2018-07-04T06:25:52.604Z,13.63
2018-07-04T06:28:26.904Z,15.63
2018-07-04T06:31:00.993Z,13.07
2018-07-04T06:33:35.300Z,6.63
2018-07-04T06:36:10.201Z,10.37
2018-07-04T06:38:38.283Z,13.33
2018-07-04T06:41:06.319Z,9.90
2018-07-04T06:43:34.406Z,5.77
2018-07-04T06:46:02.405Z,9.70
2018-07-04T06:48:30.452Z,8.17
2018-07-04T06:50:58.486Z,5.30
2018-07-04T06:53:26.499Z,6.37
2018-07-04T06:55:54.506Z,8.47
2018-07-04T06:58:22.552Z,8.70
2018-07-04T07:00:50.572Z,8.13
2018-07-04T07:03:24.595Z,8.37
2018-07-04T07:05:58.669Z,8.80
2018-07-04T07:08:32.745Z,5.53
2018-07-04T07:11:06.775Z,4.87
2018-07-04T07:13:48.180Z,4.77
2018-07-04T07:16:22.369Z,4.93
2018-07-04T07:18:56.398Z,4.77
2018-07-04T07:21:30.514Z,36.37
2018-07-04T07:24:04.782Z,9.87
2018-07-04T07:26:38.904Z,9.30
2018-07-04T07:29:13.188Z,9.63
2018-07-04T07:31:47.466Z,8.70
2018-07-04T07:34:21.717Z,11.23
2018-07-04T07:36:55.731Z,10.00
2018-07-04T07:39:29.907Z,6.00
2018-07-04T07:42:04.767Z,5.07
2018-07-04T07:44:38.938Z,4.00
2018-07-04T07:47:13.043Z,5.90
2018-07-04T07:49:47.118Z,5.07
2018-07-04T07:52:21.434Z,4.43
2018-07-04T07:54:55.689Z,5.03
2018-07-04T07:57:29.850Z,6.30
2018-07-04T08:00:04.025Z,5.63
2018-07-04T08:02:38.993Z,9.40
2018-07-04T08:05:12.987Z,5.60
2018-07-04T08:07:47.134Z,5.13
2018-07-04T08:10:21.197Z,3.83
2018-07-04T08:12:55.503Z,4.30
2018-07-04T08:15:29.631Z,4.07
2018-07-04T08:18:03.956Z,4.87
2018-07-04T08:20:38.089Z,5.40
2018-07-04T08:23:12.140Z,4.87
2018-07-04T08:25:46.251Z,5.50
2018-07-04T08:28:20.703Z,6.60
2018-07-04T08:30:54.969Z,2.80
2018-07-04T08:33:29.144Z,3.10
2018-07-04T08:36:03.219Z,4.73
2018-07-04T08:38:37.396Z,5.90
2018-07-04T08:41:12.116Z,5.73
2018-07-04T08:43:46.349Z,2.70
2018-07-04T08:46:23.800Z,3.17
2018-07-04T08:49:01.732Z,2.70
2018-07-04T08:51:35.957Z,3.97
2018-07-04T08:54:10.286Z,5.90
2018-07-04T08:56:44.382Z,4.33
2018-07-04T08:59:18.449Z,2.67
2018-07-04T09:01:53.528Z,4.10
2018-07-04T09:04:32.311Z,5.07
2018-07-04T09:07:06.922Z,3.57
2018-07-04T09:09:41.130Z,5.43
2018-07-04T09:12:15.368Z,5.53
2018-07-04T09:14:49.978Z,5.83
2018-07-04T09:17:24.485Z,4.17
2018-07-04T09:19:58.535Z,6.13
2018-07-04T09:22:32.758Z,4.83
2018-07-04T09:25:06.997Z,2.53
2018-07-04T09:27:41.041Z,4.53
2018-07-04T09:30:16.639Z,5.30
2018-07-04T09:32:51.076Z,2.67
2018-07-04T09:35:25.165Z,2.87
2018-07-04T09:37:59.219Z,2.90
2018-07-04T09:40:33.311Z,2.30
2018-07-04T09:43:07.718Z,2.70
2018-07-04T09:45:41.984Z,1.87
2018-07-04T09:48:16.103Z,2.97
2018-07-04T09:50:50.269Z,5.53
2018-07-04T09:53:24.354Z,2.77
2018-07-04T09:55:58.647Z,2.47
2018-07-04T09:58:32.710Z,4.10
2018-07-04T10:01:12.274Z,2.80
2018-07-04T10:03:46.268Z,3.17
2018-07-04T10:06:20.488Z,2.67
2018-07-04T10:08:54.485Z,3.63
2018-07-04T10:11:28.716Z,2.17
2018-07-04T10:14:02.898Z,3.20
2018-07-04T10:16:37.033Z,3.23
2018-07-04T10:19:11.144Z,2.93
2018-07-04T10:21:45.270Z,3.73
2018-07-04T10:24:20.788Z,5.10
2018-07-04T10:26:55.381Z,3.50
2018-07-04T10:29:29.599Z,3.93
2018-07-04T10:32:03.600Z,1.63
2018-07-04T10:34:37.792Z,4.37
2018-07-04T10:37:11.768Z,2.67
2018-07-04T10:39:45.943Z,4.73
2018-07-04T10:42:20.059Z,2.87
2018-07-04T10:44:54.092Z,3.50
2018-07-04T10:47:28.113Z,3.03
2018-07-04T10:50:02.222Z,5.23
2018-07-04T10:52:36.469Z,2.97
2018-07-04T10:55:10.577Z,2.90
2018-07-04T10:57:44.583Z,4.13
2018-07-04T11:00:18.687Z,3.07
2018-07-04T11:02:52.743Z,2.53
2018-07-04T11:05:27.251Z,3.43
2018-07-04T11:08:01.302Z,3.77
2018-07-04T11:10:35.456Z,2.80
2018-07-04T11:13:10.096Z,1.95
2018-07-04T11:15:44.214Z,3.87
2018-07-04T11:18:19.253Z,2.07
2018-07-04T11:20:53.446Z,1.97
2018-07-04T11:23:27.648Z,2.33
2018-07-04T11:26:01.621Z,2.10
2018-07-04T11:28:36.013Z,1.30
2018-07-04T11:31:10.203Z,4.17
2018-07-04T11:33:44.611Z,2.43
2018-07-04T11:36:18.960Z,3.87
2018-07-04T11:38:53.036Z,5.50
2018-07-04T11:41:27.127Z,4.37
2018-07-04T11:44:01.237Z,2.40
2018-07-04T11:46:29.288Z,3.63
2018-07-04T11:49:00.406Z,2.40
2018-07-04T11:51:28.625Z,2.57
2018-07-04T11:53:57.024Z,3.13
2018-07-04T11:56:25.143Z,2.13
2018-07-04T11:58:53.159Z,2.93
2018-07-04T12:01:21.182Z,4.67
2018-07-04T12:03:55.343Z,2.73
2018-07-04T12:06:29.422Z,2.43
2018-07-04T12:08:57.481Z,1.97
2018-07-04T12:11:25.550Z,2.30
2018-07-04T12:13:53.569Z,1.30
2018-07-04T12:16:21.610Z,2.73
2018-07-04T12:18:49.656Z,4.07
2018-07-04T12:21:17.742Z,1.67
2018-07-04T12:23:45.771Z,4.17
2018-07-04T12:26:13.813Z,2.20
2018-07-04T12:28:41.828Z,3.03
2018-07-04T12:31:09.929Z,3.20
2018-07-04T12:33:37.998Z,2.70
2018-07-04T12:36:06.071Z,2.67
2018-07-04T12:38:34.078Z,1.53
2018-07-04T12:41:02.138Z,2.30
2018-07-04T12:43:30.239Z,5.73
2018-07-04T12:45:58.250Z,2.40
2018-07-04T12:48:26.291Z,1.80
2018-07-04T12:50:54.307Z,2.13
2018-07-04T12:53:22.332Z,2.30
2018-07-04T12:55:56.515Z,2.67
2018-07-04T12:58:30.652Z,3.53
2018-07-04T13:01:04.815Z,2.13
2018-07-04T13:03:39.648Z,1.20
2018-07-04T13:06:13.620Z,1.90
2018-07-04T13:08:47.895Z,1.83
2018-07-04T13:11:21.993Z,2.77
2018-07-04T13:13:56.514Z,1.93
2018-07-04T13:16:30.610Z,2.10
2018-07-04T13:19:04.848Z,2.87
2018-07-04T13:21:38.863Z,3.87
2018-07-04T13:24:13.101Z,3.97
2018-07-04T13:26:47.282Z,1.50
2018-07-04T13:29:21.482Z,3.27
2018-07-04T13:31:55.738Z,3.67
2018-07-04T13:34:30.592Z,2.53
2018-07-04T13:37:04.775Z,3.50
2018-07-04T13:39:38.703Z,2.77
2018-07-04T13:42:12.901Z,3.40
2018-07-04T13:44:47.016Z,5.03
2018-07-04T13:47:21.126Z,1.30
2018-07-04T13:49:55.108Z,1.90
2018-07-04T13:52:29.348Z,2.63
2018-07-04T13:55:03.329Z,1.67
2018-07-04T13:57:37.565Z,4.23
2018-07-04T14:00:12.150Z,2.97
2018-07-04T14:02:46.561Z,1.70
2018-07-04T14:05:20.751Z,5.87
2018-07-04T14:07:55.057Z,7.60
2018-07-04T14:10:29.095Z,3.70
2018-07-04T14:13:03.095Z,3.97
2018-07-04T14:15:37.222Z,3.97
2018-07-04T14:18:11.507Z,2.13
2018-07-04T14:20:45.722Z,2.40
2018-07-04T14:23:19.827Z,5.40
2018-07-04T14:25:54.719Z,2.20
2018-07-04T14:28:29.598Z,3.27
2018-07-04T14:31:04.483Z,1.77
2018-07-04T14:33:39.480Z,3.27
2018-07-04T14:36:14.039Z,4.73
2018-07-04T14:38:48.750Z,1.40
2018-07-04T14:41:23.040Z,2.10
2018-07-04T14:43:57.081Z,1.33
2018-07-04T14:46:31.152Z,4.87
2018-07-04T14:49:05.140Z,1.40
2018-07-04T14:51:40.048Z,1.93
2018-07-04T14:54:14.219Z,1.77
2018-07-04T14:56:48.413Z,2.10
2018-07-04T14:59:22.512Z,2.07
2018-07-04T15:01:57.378Z,1.87
2018-07-04T15:04:32.698Z,1.63
2018-07-04T15:07:06.930Z,2.13
2018-07-04T15:09:41.735Z,2.83
2018-07-04T15:12:15.742Z,1.77
2018-07-04T15:14:50.049Z,2.03
2018-07-04T15:17:24.209Z,2.07
2018-07-04T15:19:58.429Z,3.03
2018-07-04T15:22:32.528Z,1.50
2018-07-04T15:25:06.598Z,2.63
2018-07-04T15:27:40.627Z,1.63
2018-07-04T15:30:14.801Z,1.43
2018-07-04T15:32:49.600Z,3.07
2018-07-04T15:35:23.641Z,1.40
2018-07-04T15:37:57.676Z,2.33
2018-07-04T15:40:31.689Z,1.67
2018-07-04T15:43:05.841Z,2.50
2018-07-04T15:45:40.082Z,1.70
2018-07-04T15:48:14.046Z,2.87
2018-07-04T15:50:48.270Z,3.07
2018-07-04T15:53:22.309Z,1.80
2018-07-04T15:55:56.369Z,1.90
2018-07-04T15:58:30.586Z,1.87
2018-07-04T16:01:04.788Z,1.70
2018-07-04T16:03:39.014Z,1.73
2018-07-04T16:06:13.041Z,1.40
2018-07-04T16:08:47.078Z,3.13
2018-07-04T16:11:21.069Z,1.87
2018-07-04T16:13:55.305Z,1.37
2018-07-04T16:16:29.539Z,2.83
2018-07-04T16:19:03.622Z,1.23
2018-07-04T16:21:37.731Z,1.60
2018-07-04T16:24:11.772Z,1.40
2018-07-04T16:26:46.131Z,1.57
2018-07-04T16:29:20.438Z,1.27
2018-07-04T16:31:54.586Z,1.53
2018-07-04T16:34:28.645Z,1.57
2018-07-04T16:37:02.772Z,2.00
2018-07-04T16:39:36.968Z,3.03
2018-07-04T16:42:11.041Z,2.33
2018-07-04T16:44:45.073Z,1.40
2018-07-04T16:47:19.076Z,1.00
2018-07-04T16:49:53.331Z,1.40
2018-07-04T16:52:27.327Z,1.07
2018-07-04T16:55:01.525Z,1.30
2018-07-04T16:57:35.707Z,2.83
2018-07-04T17:00:09.969Z,1.60
2018-07-04T17:02:43.976Z,1.40
2018-07-04T17:05:18.334Z,3.70
2018-07-04T17:07:52.464Z,1.50
2018-07-04T17:10:26.560Z,1.43
2018-07-04T17:13:00.659Z,1.93
2018-07-04T17:15:34.885Z,2.20
2018-07-04T17:18:09.733Z,1.10
2018-07-04T17:20:43.816Z,1.03
2018-07-04T17:23:17.805Z,1.33
2018-07-04T17:25:51.931Z,2.60
2018-07-04T17:28:26.084Z,1.20
2018-07-04T17:31:00.172Z,3.70
2018-07-04T17:33:34.735Z,3.87
2018-07-04T17:36:09.649Z,0.87
2018-07-04T17:38:43.677Z,1.30
2018-07-04T17:41:17.834Z,2.27
2018-07-04T17:43:52.202Z,2.13
2018-07-04T17:46:26.961Z,8.67
2018-07-04T17:49:01.099Z,1.80
2018-07-04T17:51:35.424Z,0.97
2018-07-04T17:54:10.029Z,1.00
2018-07-04T17:56:44.018Z,1.67
2018-07-04T17:59:18.228Z,1.17
2018-07-04T18:01:52.459Z,0.93
2018-07-04T18:04:26.609Z,2.43
2018-07-04T18:07:00.629Z,1.37
2018-07-04T18:09:34.815Z,2.47
2018-07-04T18:12:09.724Z,1.37
2018-07-04T18:14:43.858Z,1.10
2018-07-04T18:17:17.986Z,1.70
2018-07-04T18:19:52.300Z,1.70
2018-07-04T18:22:26.572Z,0.87
2018-07-04T18:25:00.947Z,1.33
2018-07-04T18:27:36.681Z,2.30
2018-07-04T18:30:10.720Z,0.70
2018-07-04T18:32:44.999Z,0.97
2018-07-04T18:35:19.258Z,0.70
2018-07-04T18:37:54.440Z,3.60
2018-07-04T18:40:28.565Z,0.70
2018-07-04T18:43:03.058Z,0.67
2018-07-04T18:45:37.256Z,2.13
2018-07-04T18:48:11.451Z,0.83
2018-07-04T18:50:45.646Z,1.40
2018-07-04T18:53:19.595Z,1.33
2018-07-04T18:55:54.243Z,0.90
2018-07-04T18:58:29.288Z,0.80
2018-07-04T19:01:03.816Z,1.07
2018-07-04T19:03:38.070Z,1.67
2018-07-04T19:06:12.277Z,2.10
2018-07-04T19:08:46.332Z,1.37
2018-07-04T19:11:20.513Z,0.98
2018-07-04T19:13:54.666Z,1.20
2018-07-04T19:16:29.023Z,1.10
2018-07-04T19:19:03.193Z,1.00
2018-07-04T19:21:37.408Z,1.30
2018-07-04T19:24:11.971Z,2.37
2018-07-04T19:26:47.079Z,0.83
2018-07-04T19:29:21.226Z,0.80
2018-07-04T19:31:55.417Z,0.93
2018-07-04T19:34:29.660Z,1.10
2018-07-04T19:37:04.226Z,1.80
2018-07-04T19:39:38.432Z,0.70
2018-07-04T19:42:12.571Z,0.93
2018-07-04T19:44:46.837Z,1.27
2018-07-04T19:47:21.039Z,1.80
2018-07-04T19:49:55.138Z,0.90
2018-07-04T19:52:29.236Z,1.37
2018-07-04T19:55:04.573Z,0.70
2018-07-04T19:57:38.743Z,1.27
2018-07-04T20:00:12.846Z,1.03
2018-07-04T20:02:47.217Z,0.80
2018-07-04T20:05:21.552Z,0.93
2018-07-04T20:07:55.644Z,1.43
2018-07-04T20:10:29.848Z,2.97
2018-07-04T20:13:04.021Z,1.17
2018-07-04T20:15:38.633Z,4.20
2018-07-04T20:18:12.903Z,2.57
2018-07-04T20:20:47.012Z,2.67
2018-07-04T20:23:21.554Z,2.20
2018-07-04T20:25:55.436Z,2.50
2018-07-04T20:28:29.555Z,3.90
2018-07-04T20:31:03.652Z,1.13
2018-07-04T20:33:37.766Z,1.30
2018-07-04T20:36:12.021Z,1.70
2018-07-04T20:38:46.074Z,1.17
2018-07-04T20:41:20.256Z,1.30
2018-07-04T20:43:54.315Z,2.70
2018-07-04T20:46:28.424Z,1.30
2018-07-04T20:49:02.645Z,1.37
2018-07-04T20:51:36.791Z,1.47
2018-07-04T20:54:11.150Z,2.83
2018-07-04T20:56:45.499Z,1.97
2018-07-04T20:59:19.660Z,1.80
2018-07-04T21:01:53.694Z,1.47
2018-07-04T21:04:27.983Z,3.47
2018-07-04T21:07:02.774Z,1.80
2018-07-04T21:09:36.751Z,2.47
2018-07-04T21:12:10.900Z,2.33
2018-07-04T21:14:45.018Z,2.93
2018-07-04T21:17:19.126Z,2.17
2018-07-04T21:19:53.329Z,1.27
2018-07-04T21:22:27.507Z,1.70
2018-07-04T21:25:01.716Z,2.63
2018-07-04T21:27:35.749Z,1.97
2018-07-04T21:30:09.942Z,2.03
2018-07-04T21:32:44.104Z,1.90
2018-07-04T21:35:18.327Z,3.60
2018-07-04T21:37:52.662Z,2.30
2018-07-04T21:40:26.633Z,2.43
2018-07-04T21:43:00.844Z,2.10
2018-07-04T21:45:34.940Z,3.80
2018-07-04T21:48:09.868Z,2.73
2018-07-04T21:50:44.129Z,2.60
2018-07-04T21:53:18.285Z,1.80
2018-07-04T21:55:52.460Z,2.60
2018-07-04T21:58:26.850Z,1.77
2018-07-04T22:01:00.984Z,2.13
2018-07-04T22:03:35.340Z,2.37
2018-07-04T22:06:09.760Z,2.77
2018-07-04T22:08:43.954Z,1.90
2018-07-04T22:11:18.106Z,1.70
2018-07-04T22:13:52.160Z,1.83
2018-07-04T22:16:26.396Z,2.17
2018-07-04T22:19:00.708Z,1.83
2018-07-04T22:21:34.930Z,2.33
2018-07-04T22:24:09.927Z,3.03
2018-07-04T22:26:44.348Z,2.00
2018-07-04T22:29:18.942Z,2.00
2018-07-04T22:31:53.263Z,1.67
2018-07-04T22:34:27.463Z,1.90
2018-07-04T22:37:02.653Z,1.60
2018-07-04T22:39:36.914Z,1.80
2018-07-04T22:42:11.048Z,2.40
2018-07-04T22:44:45.063Z,1.87
2018-07-04T22:47:19.283Z,2.65
2018-07-04T22:49:53.525Z,2.90
2018-07-04T22:52:27.772Z,1.87
2018-07-04T22:55:01.828Z,2.20
2018-07-04T22:57:36.070Z,1.70
2018-07-04T23:00:10.200Z,1.57
2018-07-04T23:02:44.393Z,1.70
2018-07-04T23:05:18.527Z,1.62
2018-07-04T23:07:52.699Z,1.43
2018-07-04T23:10:26.822Z,1.83
2018-07-04T23:13:01.038Z,1.57
2018-07-04T23:15:35.235Z,1.50
2018-07-04T23:18:09.781Z,1.30
2018-07-04T23:20:43.936Z,1.87
2018-07-04T23:23:17.994Z,3.57
2018-07-04T23:25:52.178Z,2.10
2018-07-04T23:28:26.296Z,2.03
2018-07-04T23:31:00.519Z,1.70
2018-07-04T23:33:34.617Z,1.80
2018-07-04T23:36:09.469Z,1.60
2018-07-04T23:38:43.616Z,1.70
2018-07-04T23:41:18.036Z,1.60
2018-07-04T23:43:52.061Z,1.73
2018-07-04T23:46:26.352Z,1.70
2018-07-04T23:49:00.616Z,1.70
2018-07-04T23:51:34.808Z,1.90
2018-07-04T23:54:08.877Z,1.83
2018-07-04T23:56:43.195Z,1.63
2018-07-04T23:59:17.207Z,1.70
